sensor_id;sensor_type;location;lat;lon;timestamp;pressure;altitude;pressure_sealevel;temperature;humidity
41312;BME280;27061;41.648;24.568;2023-02-13T00:01:58;86989.84;;;0.86;64.49
41312;BME280;27061;41.648;24.568;2023-02-13T00:04:25;87001.84;;;0.79;64.21
41312;BME280;27061;41.648;24.568;2023-02-13T00:06:52;86992.19;;;0.76;65.31
41312;BME280;27061;41.648;24.568;2023-02-13T00:09:25;86995.00;;;0.78;65.21
41312;BME280;27061;41.648;24.568;2023-02-13T00:11:52;86990.94;;;0.79;64.93
41312;BME280;27061;41.648;24.568;2023-02-13T00:14:19;86988.53;;;0.87;62.62
41312;BME280;27061;41.648;24.568;2023-02-13T00:16:45;86995.16;;;0.82;63.41
41312;BME280;27061;41.648;24.568;2023-02-13T00:19:12;87000.75;;;0.86;63.83
41312;BME280;27061;41.648;24.568;2023-02-13T00:21:39;86997.81;;;0.80;64.91
41312;BME280;27061;41.648;24.568;2023-02-13T00:24:06;87008.72;;;0.80;65.01
41312;BME280;27061;41.648;24.568;2023-02-13T00:26:33;87009.88;;;0.74;66.64
41312;BME280;27061;41.648;24.568;2023-02-13T00:29:00;87009.63;;;0.68;66.37
41312;BME280;27061;41.648;24.568;2023-02-13T00:31:27;87005.75;;;0.73;66.59
41312;BME280;27061;41.648;24.568;2023-02-13T00:33:54;87005.81;;;0.76;66.20
41312;BME280;27061;41.648;24.568;2023-02-13T00:36:21;87014.00;;;0.76;66.01
41312;BME280;27061;41.648;24.568;2023-02-13T00:38:49;87007.09;;;0.72;66.71
41312;BME280;27061;41.648;24.568;2023-02-13T00:41:18;87012.97;;;0.67;68.12
41312;BME280;27061;41.648;24.568;2023-02-13T00:43:45;87016.41;;;0.67;68.90
41312;BME280;27061;41.648;24.568;2023-02-13T00:46:12;87017.91;;;0.70;68.41
41312;BME280;27061;41.648;24.568;2023-02-13T00:48:39;87018.13;;;0.77;66.35
41312;BME280;27061;41.648;24.568;2023-02-13T00:51:07;87016.66;;;0.73;66.34
41312;BME280;27061;41.648;24.568;2023-02-13T00:53:34;87012.53;;;0.72;68.08
41312;BME280;27061;41.648;24.568;2023-02-13T00:56:01;87017.91;;;0.70;68.17
41312;BME280;27061;41.648;24.568;2023-02-13T00:58:28;87011.34;;;0.78;67.15
41312;BME280;27061;41.648;24.568;2023-02-13T01:00:55;87004.66;;;0.81;66.00
41312;BME280;27061;41.648;24.568;2023-02-13T01:03:23;87005.38;;;0.81;65.89
41312;BME280;27061;41.648;24.568;2023-02-13T01:05:50;87009.19;;;0.74;66.68
41312;BME280;27061;41.648;24.568;2023-02-13T01:08:18;87008.31;;;0.69;66.96
41312;BME280;27061;41.648;24.568;2023-02-13T01:10:49;86995.63;;;0.58;69.13
41312;BME280;27061;41.648;24.568;2023-02-13T01:13:16;87003.88;;;0.60;69.13
41312;BME280;27061;41.648;24.568;2023-02-13T01:15:46;86994.59;;;0.67;69.18
41312;BME280;27061;41.648;24.568;2023-02-13T01:18:15;86998.81;;;0.70;67.92
41312;BME280;27061;41.648;24.568;2023-02-13T01:20:42;86997.34;;;0.67;67.92
41312;BME280;27061;41.648;24.568;2023-02-13T01:23:10;86993.38;;;0.70;67.79
41312;BME280;27061;41.648;24.568;2023-02-13T01:25:40;86994.00;;;0.69;66.79
41312;BME280;27061;41.648;24.568;2023-02-13T01:28:07;86994.69;;;0.69;66.25
41312;BME280;27061;41.648;24.568;2023-02-13T01:30:34;86987.66;;;0.64;65.98
41312;BME280;27061;41.648;24.568;2023-02-13T01:33:01;87000.13;;;0.69;65.85
41312;BME280;27061;41.648;24.568;2023-02-13T01:35:28;86995.22;;;0.66;66.92
41312;BME280;27061;41.648;24.568;2023-02-13T01:37:55;86994.78;;;0.71;67.67
41312;BME280;27061;41.648;24.568;2023-02-13T01:40:22;86990.56;;;0.68;67.71
41312;BME280;27061;41.648;24.568;2023-02-13T01:42:49;86983.63;;;0.65;65.43
41312;BME280;27061;41.648;24.568;2023-02-13T01:45:21;86990.47;;;0.66;64.36
41312;BME280;27061;41.648;24.568;2023-02-13T01:47:53;86995.00;;;0.78;60.25
41312;BME280;27061;41.648;24.568;2023-02-13T01:50:31;86988.13;;;0.59;61.21
41312;BME280;27061;41.648;24.568;2023-02-13T01:53:42;86995.22;;;0.66;60.89
41312;BME280;27061;41.648;24.568;2023-02-13T01:55:54;86990.25;;;0.60;61.68
41312;BME280;27061;41.648;24.568;2023-02-13T01:58:23;86990.34;;;0.62;61.40
41312;BME280;27061;41.648;24.568;2023-02-13T02:00:51;86997.34;;;0.67;62.23
41312;BME280;27061;41.648;24.568;2023-02-13T02:03:42;86996.72;;;0.69;62.29
41312;BME280;27061;41.648;24.568;2023-02-13T02:06:10;87003.41;;;0.66;63.56
41312;BME280;27061;41.648;24.568;2023-02-13T02:08:38;86991.03;;;0.63;64.95
41312;BME280;27061;41.648;24.568;2023-02-13T02:11:07;87003.88;;;0.60;65.87
41312;BME280;27061;41.648;24.568;2023-02-13T02:13:36;87015.09;;;0.68;66.18
41312;BME280;27061;41.648;24.568;2023-02-13T02:16:07;87007.00;;;0.70;65.23
41312;BME280;27061;41.648;24.568;2023-02-13T02:18:34;87003.09;;;0.76;63.51
41312;BME280;27061;41.648;24.568;2023-02-13T02:26:49;87013.16;;;0.89;60.66
41312;BME280;27061;41.648;24.568;2023-02-13T02:34:53;87019.44;;;0.58;61.78
41312;BME280;27061;41.648;24.568;2023-02-13T02:42:32;87026.91;;;0.57;61.09
41312;BME280;27061;41.648;24.568;2023-02-13T02:45:10;87027.69;;;0.60;61.73
41312;BME280;27061;41.648;24.568;2023-02-13T03:01:20;87036.75;;;0.31;61.60
41312;BME280;27061;41.648;24.568;2023-02-13T03:04:10;87033.84;;;0.27;63.45
41312;BME280;27061;41.648;24.568;2023-02-13T03:07:02;87036.50;;;0.25;64.54
41312;BME280;27061;41.648;24.568;2023-02-13T03:09:31;87038.22;;;0.34;64.73
41312;BME280;27061;41.648;24.568;2023-02-13T03:12:20;87034.28;;;0.37;63.45
41312;BME280;27061;41.648;24.568;2023-02-13T03:15:07;87041.41;;;0.28;61.46
41312;BME280;27061;41.648;24.568;2023-02-13T03:17:34;87045.78;;;0.35;61.21
41312;BME280;27061;41.648;24.568;2023-02-13T03:26:04;87043.16;;;0.38;58.68
41312;BME280;27061;41.648;24.568;2023-02-13T03:28:36;87044.94;;;0.31;59.77
41312;BME280;27061;41.648;24.568;2023-02-13T03:31:33;87043.75;;;0.36;59.51
41312;BME280;27061;41.648;24.568;2023-02-13T03:36:55;87042.28;;;0.33;58.63
41312;BME280;27061;41.648;24.568;2023-02-13T03:42:54;87058.66;;;0.17;57.93
41312;BME280;27061;41.648;24.568;2023-02-13T03:45:05;87046.88;;;0.13;59.48
41312;BME280;27061;41.648;24.568;2023-02-13T03:47:54;87044.56;;;0.23;57.72
41312;BME280;27061;41.648;24.568;2023-02-13T03:50:22;87047.69;;;0.15;57.47
41312;BME280;27061;41.648;24.568;2023-02-13T03:52:54;87043.81;;;0.05;58.25
41312;BME280;27061;41.648;24.568;2023-02-13T03:55:27;87052.47;;;-0.01;57.34
41312;BME280;27061;41.648;24.568;2023-02-13T03:58:16;87060.25;;;0.07;56.23
41312;BME280;27061;41.648;24.568;2023-02-13T04:01:03;87057.72;;;-0.05;55.79
41312;BME280;27061;41.648;24.568;2023-02-13T04:03:50;87059.91;;;-0.17;58.25
41312;BME280;27061;41.648;24.568;2023-02-13T04:06:19;87063.78;;;-0.22;59.05
41312;BME280;27061;41.648;24.568;2023-02-13T04:08:47;87061.06;;;-0.22;59.26
41312;BME280;27061;41.648;24.568;2023-02-13T04:11:15;87067.84;;;-0.23;59.76
41312;BME280;27061;41.648;24.568;2023-02-13T04:16:41;87077.41;;;-0.22;59.32
41312;BME280;27061;41.648;24.568;2023-02-13T04:19:06;87076.59;;;-0.25;58.37
41312;BME280;27061;41.648;24.568;2023-02-13T04:21:35;87068.88;;;-0.30;59.14
41312;BME280;27061;41.648;24.568;2023-02-13T04:24:03;87074.66;;;-0.38;60.76
41312;BME280;27061;41.648;24.568;2023-02-13T04:26:36;87075.28;;;-0.40;60.63
41312;BME280;27061;41.648;24.568;2023-02-13T04:29:04;87078.69;;;-0.39;60.58
41312;BME280;27061;41.648;24.568;2023-02-13T04:31:31;87070.81;;;-0.33;60.61
41312;BME280;27061;41.648;24.568;2023-02-13T04:33:58;87076.16;;;-0.35;60.35
41312;BME280;27061;41.648;24.568;2023-02-13T04:36:25;87076.25;;;-0.33;59.90
41312;BME280;27061;41.648;24.568;2023-02-13T04:38:52;87076.06;;;-0.37;59.59
41312;BME280;27061;41.648;24.568;2023-02-13T04:41:19;87067.81;;;-0.39;59.38
41312;BME280;27061;41.648;24.568;2023-02-13T04:43:46;87076.69;;;-0.39;59.39
41312;BME280;27061;41.648;24.568;2023-02-13T04:46:13;87073.00;;;-0.45;59.56
41312;BME280;27061;41.648;24.568;2023-02-13T04:48:40;87080.28;;;-0.50;59.41
41312;BME280;27061;41.648;24.568;2023-02-13T04:51:07;87088.53;;;-0.48;59.46
41312;BME280;27061;41.648;24.568;2023-02-13T04:53:33;87083.19;;;-0.46;59.82
41312;BME280;27061;41.648;24.568;2023-02-13T04:56:00;87081.06;;;-0.47;59.73
41312;BME280;27061;41.648;24.568;2023-02-13T04:58:27;87081.69;;;-0.49;59.56
41312;BME280;27061;41.648;24.568;2023-02-13T05:00:54;87081.16;;;-0.45;59.06
41312;BME280;27061;41.648;24.568;2023-02-13T05:03:21;87082.91;;;-0.52;57.92
41312;BME280;27061;41.648;24.568;2023-02-13T05:05:48;87069.53;;;-0.77;58.11
41312;BME280;27061;41.648;24.568;2023-02-13T05:08:15;87089.03;;;-0.67;58.55
41312;BME280;27061;41.648;24.568;2023-02-13T05:10:42;87093.94;;;-0.63;59.02
41312;BME280;27061;41.648;24.568;2023-02-13T05:13:09;87086.81;;;-0.70;60.10
41312;BME280;27061;41.648;24.568;2023-02-13T05:15:37;87085.31;;;-0.74;60.35
41312;BME280;27061;41.648;24.568;2023-02-13T05:18:04;87082.53;;;-0.76;60.34
41312;BME280;27061;41.648;24.568;2023-02-13T05:20:30;87086.56;;;-0.77;60.35
41312;BME280;27061;41.648;24.568;2023-02-13T05:22:57;87089.38;;;-0.75;60.34
41312;BME280;27061;41.648;24.568;2023-02-13T05:25:43;87090.75;;;-0.74;59.33
41312;BME280;27061;41.648;24.568;2023-02-13T05:28:10;87100.16;;;-0.77;59.38
41312;BME280;27061;41.648;24.568;2023-02-13T05:30:55;87102.50;;;-0.85;59.19
41312;BME280;27061;41.648;24.568;2023-02-13T05:33:23;87107.75;;;-0.89;59.04
41312;BME280;27061;41.648;24.568;2023-02-13T05:35:50;87111.28;;;-0.86;59.37
41312;BME280;27061;41.648;24.568;2023-02-13T05:38:17;87104.94;;;-0.91;59.59
41312;BME280;27061;41.648;24.568;2023-02-13T05:40:44;87104.84;;;-0.93;59.44
41312;BME280;27061;41.648;24.568;2023-02-13T05:43:11;87098.00;;;-0.94;59.08
41312;BME280;27061;41.648;24.568;2023-02-13T05:45:38;87098.09;;;-0.92;58.22
41312;BME280;27061;41.648;24.568;2023-02-13T05:48:04;87101.94;;;-0.97;58.29
41312;BME280;27061;41.648;24.568;2023-02-13T05:50:31;87104.84;;;-0.93;58.35
41312;BME280;27061;41.648;24.568;2023-02-13T05:52:58;87099.06;;;-1.15;57.87
41312;BME280;27061;41.648;24.568;2023-02-13T05:55:25;87103.41;;;-1.09;58.39
41312;BME280;27061;41.648;24.568;2023-02-13T05:57:56;87101.19;;;-1.13;57.98
41312;BME280;27061;41.648;24.568;2023-02-13T06:00:23;87105.03;;;-1.18;58.22
41312;BME280;27061;41.648;24.568;2023-02-13T06:02:50;87111.88;;;-1.17;58.39
41312;BME280;27061;41.648;24.568;2023-02-13T06:05:17;87114.69;;;-1.15;57.90
41312;BME280;27061;41.648;24.568;2023-02-13T06:07:44;87121.34;;;-1.18;57.41
41312;BME280;27061;41.648;24.568;2023-02-13T06:10:11;87120.88;;;-1.28;58.97
41312;BME280;27061;41.648;24.568;2023-02-13T06:12:38;87123.66;;;-1.26;59.21
41312;BME280;27061;41.648;24.568;2023-02-13T06:15:05;87119.84;;;-1.35;60.32
41312;BME280;27061;41.648;24.568;2023-02-13T06:17:32;87122.06;;;-1.31;60.49
41312;BME280;27061;41.648;24.568;2023-02-13T06:19:59;87132.72;;;-1.35;61.15
41312;BME280;27061;41.648;24.568;2023-02-13T06:22:26;87133.75;;;-1.29;61.08
41312;BME280;27061;41.648;24.568;2023-02-13T06:24:52;87146.72;;;-1.27;60.95
41312;BME280;27061;41.648;24.568;2023-02-13T06:27:19;87135.34;;;-1.24;61.07
41312;BME280;27061;41.648;24.568;2023-02-13T06:29:46;87128.91;;;-1.17;59.53
41312;BME280;27061;41.648;24.568;2023-02-13T06:32:13;87119.94;;;-1.19;59.67
41312;BME280;27061;41.648;24.568;2023-02-13T06:34:40;87126.47;;;-1.24;60.50
41312;BME280;27061;41.648;24.568;2023-02-13T06:37:07;87138.28;;;-1.33;61.01
41312;BME280;27061;41.648;24.568;2023-02-13T06:39:34;87139.66;;;-1.19;60.40
41312;BME280;27061;41.648;24.568;2023-02-13T06:42:01;87132.44;;;-1.28;60.94
41312;BME280;27061;41.648;24.568;2023-02-13T06:44:28;87123.75;;;-1.24;60.08
41312;BME280;27061;41.648;24.568;2023-02-13T06:46:54;87131.19;;;-1.11;59.31
41312;BME280;27061;41.648;24.568;2023-02-13T06:49:22;87128.56;;;-1.09;59.35
41312;BME280;27061;41.648;24.568;2023-02-13T06:51:48;87128.09;;;-1.19;59.80
41312;BME280;27061;41.648;24.568;2023-02-13T06:54:15;87129.41;;;-1.20;61.30
41312;BME280;27061;41.648;24.568;2023-02-13T06:56:42;87126.72;;;-1.04;59.75
41312;BME280;27061;41.648;24.568;2023-02-13T06:59:09;87130.16;;;-1.04;59.48
41312;BME280;27061;41.648;24.568;2023-02-13T07:01:36;87120.50;;;-1.07;59.52
41312;BME280;27061;41.648;24.568;2023-02-13T07:04:02;87111.22;;;-1.02;59.63
41312;BME280;27061;41.648;24.568;2023-02-13T07:06:29;87108.41;;;-1.04;59.13
41312;BME280;27061;41.648;24.568;2023-02-13T07:08:59;87113.91;;;-0.88;59.31
41312;BME280;27061;41.648;24.568;2023-02-13T07:11:26;87115.13;;;-0.91;59.58
41312;BME280;27061;41.648;24.568;2023-02-13T07:13:53;87106.16;;;-0.94;59.70
41312;BME280;27061;41.648;24.568;2023-02-13T07:16:20;87104.13;;;-0.93;60.27
41312;BME280;27061;41.648;24.568;2023-02-13T07:18:47;87109.06;;;-0.90;60.95
41312;BME280;27061;41.648;24.568;2023-02-13T07:21:14;87112.69;;;-0.85;62.80
41312;BME280;27061;41.648;24.568;2023-02-13T07:23:40;87112.16;;;-0.82;63.55
41312;BME280;27061;41.648;24.568;2023-02-13T07:26:07;87110.44;;;-0.75;64.73
41312;BME280;27061;41.648;24.568;2023-02-13T07:28:36;87123.69;;;-0.67;65.09
41312;BME280;27061;41.648;24.568;2023-02-13T07:31:04;87124.06;;;-0.59;64.41
41312;BME280;27061;41.648;24.568;2023-02-13T07:33:32;87128.28;;;-0.56;64.65
41312;BME280;27061;41.648;24.568;2023-02-13T07:35:59;87130.19;;;-0.59;65.90
41312;BME280;27061;41.648;24.568;2023-02-13T07:38:28;87131.34;;;-0.48;67.46
41312;BME280;27061;41.648;24.568;2023-02-13T07:41:02;87126.81;;;-0.44;66.15
41312;BME280;27061;41.648;24.568;2023-02-13T07:43:29;87124.91;;;-0.25;65.30
41312;BME280;27061;41.648;24.568;2023-02-13T07:45:57;87131.13;;;-0.23;65.97
41312;BME280;27061;41.648;24.568;2023-02-13T07:48:24;87133.44;;;-0.02;65.48
41312;BME280;27061;41.648;24.568;2023-02-13T07:50:58;87130.59;;;0.12;59.86
41312;BME280;27061;41.648;24.568;2023-02-13T07:53:25;87130.84;;;0.34;58.37
41312;BME280;27061;41.648;24.568;2023-02-13T07:55:52;87128.72;;;0.48;57.11
41312;BME280;27061;41.648;24.568;2023-02-13T07:58:19;87136.44;;;0.54;57.61
41312;BME280;27061;41.648;24.568;2023-02-13T08:00:46;87126.94;;;0.55;61.37
41312;BME280;27061;41.648;24.568;2023-02-13T08:03:13;87130.81;;;0.65;62.29
41312;BME280;27061;41.648;24.568;2023-02-13T08:05:46;87131.47;;;0.82;59.03
41312;BME280;27061;41.648;24.568;2023-02-13T08:08:13;87129.69;;;0.88;59.77
41312;BME280;27061;41.648;24.568;2023-02-13T08:10:40;87131.06;;;1.05;57.79
41312;BME280;27061;41.648;24.568;2023-02-13T08:13:25;87133.84;;;1.07;57.74
41312;BME280;27061;41.648;24.568;2023-02-13T08:15:52;87133.25;;;1.26;53.09
41312;BME280;27061;41.648;24.568;2023-02-13T08:18:19;87120.25;;;1.42;50.09
41312;BME280;27061;41.648;24.568;2023-02-13T08:20:49;87126.09;;;1.53;51.82
41312;BME280;27061;41.648;24.568;2023-02-13T08:23:16;87123.91;;;1.67;51.62
41312;BME280;27061;41.648;24.568;2023-02-13T08:25:43;87130.28;;;1.73;53.42
41312;BME280;27061;41.648;24.568;2023-02-13T08:28:10;87132.59;;;1.81;54.51
41312;BME280;27061;41.648;24.568;2023-02-13T08:30:37;87131.13;;;1.96;54.46
41312;BME280;27061;41.648;24.568;2023-02-13T08:33:04;87132.75;;;2.03;54.22
41312;BME280;27061;41.648;24.568;2023-02-13T08:35:30;87132.56;;;2.16;52.63
41312;BME280;27061;41.648;24.568;2023-02-13T08:38:01;87132.94;;;2.27;53.00
41312;BME280;27061;41.648;24.568;2023-02-13T08:40:29;87119.97;;;2.27;55.38
41312;BME280;27061;41.648;24.568;2023-02-13T08:43:00;87125.31;;;2.43;53.19
41312;BME280;27061;41.648;24.568;2023-02-13T08:45:27;87119.78;;;2.61;51.58
41312;BME280;27061;41.648;24.568;2023-02-13T08:47:55;87107.16;;;2.71;52.53
41312;BME280;27061;41.648;24.568;2023-02-13T08:50:22;87115.63;;;2.79;53.77
41312;BME280;27061;41.648;24.568;2023-02-13T08:52:49;87118.91;;;2.96;51.57
41312;BME280;27061;41.648;24.568;2023-02-13T08:55:16;87124.03;;;3.05;51.25
41312;BME280;27061;41.648;24.568;2023-02-13T08:57:43;87112.69;;;3.15;51.88
41312;BME280;27061;41.648;24.568;2023-02-13T09:00:10;87120.91;;;3.15;50.64
41312;BME280;27061;41.648;24.568;2023-02-13T09:02:37;87121.03;;;3.19;50.94
41312;BME280;27061;41.648;24.568;2023-02-13T09:05:04;87120.66;;;3.28;51.80
41312;BME280;27061;41.648;24.568;2023-02-13T09:07:31;87119.97;;;3.50;50.35
41312;BME280;27061;41.648;24.568;2023-02-13T09:09:58;87119.41;;;3.53;47.79
41312;BME280;27061;41.648;24.568;2023-02-13T09:12:24;87118.00;;;3.52;49.60
41312;BME280;27061;41.648;24.568;2023-02-13T09:14:51;87112.78;;;3.60;47.03
41312;BME280;27061;41.648;24.568;2023-02-13T09:17:18;87119.09;;;3.65;45.62
41312;BME280;27061;41.648;24.568;2023-02-13T09:19:45;87115.94;;;3.75;48.90
41312;BME280;27061;41.648;24.568;2023-02-13T09:22:12;87116.19;;;3.83;47.13
41312;BME280;27061;41.648;24.568;2023-02-13T09:24:42;87113.75;;;3.93;46.37
41312;BME280;27061;41.648;24.568;2023-02-13T09:27:09;87115.41;;;4.02;48.26
41312;BME280;27061;41.648;24.568;2023-02-13T09:29:36;87114.88;;;4.08;47.83
41312;BME280;27061;41.648;24.568;2023-02-13T09:32:03;87100.69;;;4.13;41.12
41312;BME280;27061;41.648;24.568;2023-02-13T09:34:30;87101.66;;;4.24;41.73
41312;BME280;27061;41.648;24.568;2023-02-13T09:36:57;87101.91;;;4.32;42.73
41312;BME280;27061;41.648;24.568;2023-02-13T09:39:24;87104.00;;;4.33;42.01
41312;BME280;27061;41.648;24.568;2023-02-13T09:41:51;87095.81;;;4.35;45.27
41312;BME280;27061;41.648;24.568;2023-02-13T09:44:22;87091.63;;;4.32;44.59
41312;BME280;27061;41.648;24.568;2023-02-13T09:49:41;87098.31;;;4.51;45.38
41312;BME280;27061;41.648;24.568;2023-02-13T09:52:09;87093.00;;;4.57;42.99
41312;BME280;27061;41.648;24.568;2023-02-13T09:54:36;87093.06;;;4.59;46.81
41312;BME280;27061;41.648;24.568;2023-02-13T09:57:09;87084.13;;;4.59;44.39
41312;BME280;27061;41.648;24.568;2023-02-13T10:03:06;87078.00;;;4.86;43.22
41312;BME280;27061;41.648;24.568;2023-02-13T10:07:45;87077.03;;;5.01;43.37
41312;BME280;27061;41.648;24.568;2023-02-13T10:10:22;87068.25;;;5.07;43.49
41312;BME280;27061;41.648;24.568;2023-02-13T10:18:09;87070.44;;;5.12;44.35
41312;BME280;27061;41.648;24.568;2023-02-13T10:20:41;87061.16;;;5.26;43.84
41312;BME280;27061;41.648;24.568;2023-02-13T10:23:15;87061.91;;;5.28;43.47
41312;BME280;27061;41.648;24.568;2023-02-13T10:26:00;87060.66;;;5.33;43.80
41312;BME280;27061;41.648;24.568;2023-02-13T10:30:55;87050.84;;;5.54;35.44
41312;BME280;27061;41.648;24.568;2023-02-13T10:38:24;87052.16;;;5.51;33.29
41312;BME280;27061;41.648;24.568;2023-02-13T10:43:33;87046.47;;;5.43;33.91
41312;BME280;27061;41.648;24.568;2023-02-13T10:46:13;87046.22;;;5.33;32.14
41312;BME280;27061;41.648;24.568;2023-02-13T10:51:24;87040.09;;;5.06;40.23
41312;BME280;27061;41.648;24.568;2023-02-13T10:53:58;87050.06;;;5.22;37.30
41312;BME280;27061;41.648;24.568;2023-02-13T11:04:06;87033.50;;;5.45;32.18
41312;BME280;27061;41.648;24.568;2023-02-13T11:06:38;87027.00;;;5.33;36.07
41312;BME280;27061;41.648;24.568;2023-02-13T11:09:08;87030.03;;;5.45;34.25
41312;BME280;27061;41.648;24.568;2023-02-13T11:11:39;87027.44;;;5.51;34.13
41312;BME280;27061;41.648;24.568;2023-02-13T11:16:40;87023.78;;;5.42;37.96
41312;BME280;27061;41.648;24.568;2023-02-13T11:19:18;87024.00;;;5.50;37.96
41312;BME280;27061;41.648;24.568;2023-02-13T11:21:47;87015.19;;;5.56;35.05
41312;BME280;27061;41.648;24.568;2023-02-13T11:24:20;87011.94;;;5.64;35.57
41312;BME280;27061;41.648;24.568;2023-02-13T11:27:07;87016.34;;;5.77;34.22
41312;BME280;27061;41.648;24.568;2023-02-13T11:29:35;87006.75;;;5.78;35.56
41312;BME280;27061;41.648;24.568;2023-02-13T11:34:30;86996.75;;;5.91;36.79
41312;BME280;27061;41.648;24.568;2023-02-13T11:37:17;86992.69;;;5.94;36.41
41312;BME280;27061;41.648;24.568;2023-02-13T11:39:45;86994.22;;;6.01;36.41
41312;BME280;27061;41.648;24.568;2023-02-13T11:42:33;87000.47;;;6.05;34.58
41312;BME280;27061;41.648;24.568;2023-02-13T11:45:05;86990.94;;;6.08;36.15
41312;BME280;27061;41.648;24.568;2023-02-13T11:47:37;86987.53;;;6.10;38.73
41312;BME280;27061;41.648;24.568;2023-02-13T11:50:06;86989.13;;;6.21;31.31
41312;BME280;27061;41.648;24.568;2023-02-13T11:52:50;86993.28;;;6.22;30.06
41312;BME280;27061;41.648;24.568;2023-02-13T11:55:32;86985.00;;;6.20;32.98
41312;BME280;27061;41.648;24.568;2023-02-13T11:58:21;86990.53;;;6.22;33.80
41312;BME280;27061;41.648;24.568;2023-02-13T12:00:49;86989.13;;;6.21;34.16
41312;BME280;27061;41.648;24.568;2023-02-13T12:06:04;86978.03;;;6.17;34.96
41312;BME280;27061;41.648;24.568;2023-02-13T12:08:33;86979.00;;;6.30;36.20
41312;BME280;27061;41.648;24.568;2023-02-13T12:10:59;86977.63;;;6.31;31.45
41312;BME280;27061;41.648;24.568;2023-02-13T12:13:32;86968.69;;;6.30;35.50
41312;BME280;27061;41.648;24.568;2023-02-13T12:16:02;86968.84;;;6.38;32.15
41312;BME280;27061;41.648;24.568;2023-02-13T12:23:37;86949.72;;;6.44;33.08
41312;BME280;27061;41.648;24.568;2023-02-13T12:33:56;86952.69;;;6.56;34.05
41312;BME280;27061;41.648;24.568;2023-02-13T12:39:24;86937.59;;;6.59;33.34
41312;BME280;27061;41.648;24.568;2023-02-13T12:47:18;86936.38;;;6.69;31.90
41312;BME280;27061;41.648;24.568;2023-02-13T12:54:58;86930.91;;;6.71;30.88
41312;BME280;27061;41.648;24.568;2023-02-13T13:05:46;86906.22;;;6.75;30.01
41312;BME280;27061;41.648;24.568;2023-02-13T13:11:18;86917.44;;;6.87;35.92
41312;BME280;27061;41.648;24.568;2023-02-13T13:13:58;86907.19;;;6.91;35.48
41312;BME280;27061;41.648;24.568;2023-02-13T13:16:50;86905.84;;;6.92;32.85
41312;BME280;27061;41.648;24.568;2023-02-13T13:21:50;86906.81;;;7.09;31.94
41312;BME280;27061;41.648;24.568;2023-02-13T13:30:27;86908.28;;;7.16;29.90
41312;BME280;27061;41.648;24.568;2023-02-13T13:33:04;86899.91;;;7.08;31.39
41312;BME280;27061;41.648;24.568;2023-02-13T13:35:34;86902.84;;;7.22;30.36
41312;BME280;27061;41.648;24.568;2023-02-13T13:38:12;86902.97;;;7.28;31.24
41312;BME280;27061;41.648;24.568;2023-02-13T13:40:56;86898.84;;;7.29;31.96
41312;BME280;27061;41.648;24.568;2023-02-13T13:48:59;86889.94;;;7.33;30.93
41312;BME280;27061;41.648;24.568;2023-02-13T13:51:32;86889.25;;;7.32;34.16
41312;BME280;27061;41.648;24.568;2023-02-13T13:57:12;86890.75;;;7.42;32.88
41312;BME280;27061;41.648;24.568;2023-02-13T13:59:18;86876.78;;;7.27;34.63
41312;BME280;27061;41.648;24.568;2023-02-13T14:01:45;86887.91;;;7.35;34.88
41312;BME280;27061;41.648;24.568;2023-02-13T14:11:54;86891.84;;;7.22;34.45
41312;BME280;27061;41.648;24.568;2023-02-13T14:16:53;86883.31;;;7.04;35.44
41312;BME280;27061;41.648;24.568;2023-02-13T14:21:52;86885.81;;;6.88;36.20
41312;BME280;27061;41.648;24.568;2023-02-13T14:24:19;86879.50;;;6.81;36.55
41312;BME280;27061;41.648;24.568;2023-02-13T14:26:48;86881.44;;;6.73;36.60
41312;BME280;27061;41.648;24.568;2023-02-13T14:29:30;86881.25;;;6.63;35.96
41312;BME280;27061;41.648;24.568;2023-02-13T14:32:13;86879.13;;;6.59;36.31
41312;BME280;27061;41.648;24.568;2023-02-13T14:34:42;86880.28;;;6.46;36.78
41312;BME280;27061;41.648;24.568;2023-02-13T14:37:18;86881.47;;;6.35;36.77
41312;BME280;27061;41.648;24.568;2023-02-13T14:42:34;86884.50;;;6.13;38.75
41312;BME280;27061;41.648;24.568;2023-02-13T14:45:02;86889.81;;;6.05;39.64
41312;BME280;27061;41.648;24.568;2023-02-13T14:49:57;86892.31;;;5.91;39.06
41312;BME280;27061;41.648;24.568;2023-02-13T14:52:26;86890.91;;;5.90;38.38
41312;BME280;27061;41.648;24.568;2023-02-13T14:54:57;86888.00;;;5.83;38.27
41312;BME280;27061;41.648;24.568;2023-02-13T14:57:46;86898.59;;;5.63;38.43
41312;BME280;27061;41.648;24.568;2023-02-13T15:02:45;86894.00;;;5.40;38.75
41312;BME280;27061;41.648;24.568;2023-02-13T15:05:14;86897.19;;;5.30;39.44
41312;BME280;27061;41.648;24.568;2023-02-13T15:07:46;86892.28;;;5.25;39.61
41312;BME280;27061;41.648;24.568;2023-02-13T15:13:00;86895.91;;;5.03;40.46
41312;BME280;27061;41.648;24.568;2023-02-13T15:18:02;86894.25;;;4.90;40.69
41312;BME280;27061;41.648;24.568;2023-02-13T15:20:31;86886.13;;;4.66;41.03
41312;BME280;27061;41.648;24.568;2023-02-13T15:23:06;86893.47;;;4.58;40.90
41312;BME280;27061;41.648;24.568;2023-02-13T15:25:35;86896.84;;;4.54;41.00
41312;BME280;27061;41.648;24.568;2023-02-13T15:28:06;86894.38;;;4.38;41.43
41312;BME280;27061;41.648;24.568;2023-02-13T15:30:35;86901.00;;;4.29;41.60
41312;BME280;27061;41.648;24.568;2023-02-13T15:33:03;86897.38;;;4.21;42.08
41312;BME280;27061;41.648;24.568;2023-02-13T15:35:41;86902.66;;;4.15;43.81
41312;BME280;27061;41.648;24.568;2023-02-13T15:38:18;86906.09;;;4.13;43.74
41312;BME280;27061;41.648;24.568;2023-02-13T15:40:45;86906.66;;;4.10;44.65
41312;BME280;27061;41.648;24.568;2023-02-13T15:43:25;86905.75;;;4.01;46.25
41312;BME280;27061;41.648;24.568;2023-02-13T15:45:53;86906.91;;;3.92;47.86
41312;BME280;27061;41.648;24.568;2023-02-13T15:48:23;86912.19;;;3.86;47.68
41312;BME280;27061;41.648;24.568;2023-02-13T15:50:50;86910.78;;;3.85;47.62
41312;BME280;27061;41.648;24.568;2023-02-13T15:53:17;86916.75;;;3.77;48.26
41312;BME280;27061;41.648;24.568;2023-02-13T15:55:54;86919.22;;;3.67;48.74
41312;BME280;27061;41.648;24.568;2023-02-13T15:58:21;86922.72;;;3.70;48.35
41312;BME280;27061;41.648;24.568;2023-02-13T16:00:51;86924.56;;;3.63;48.30